Portland, Michigan
Current Conditions -  °F | °C
As of 10:13 PM on Wednesday 22 Oct 2014 (Local Time) from KY70 Reporting Station
Overcast Overcast  
Wind Chill: 42°   Ceiling: 1800
Heat Index: 42°   Visibility: 10mi
Dew Point: 38°   Wind: 0mph
Humidity: 84%   Direction: NA
Pressure: 30.29"   Gusts: NA
Location:  42.87°N, 84.9°W
Report Text: KY70 230213Z AUTO 00000KT 10SM OVC018 06/03 A3029 RMK AO2 T00580033
Loading
Personal Weather Stations






























Interactive Weather Map
Tropical Storm Tracking
New forecast layout! Learn more

10-Day Weather Forecast

Advertisements
Track Severe Weather on mobile